createdAt,value
2023-03-26T00:00:31.332Z,99810.28
2023-03-26T00:03:04.535Z,99769.38
2023-03-26T00:05:34.474Z,99798.22
2023-03-26T00:08:02.815Z,99793.09
2023-03-26T00:10:33.538Z,99794.84
2023-03-26T00:13:01.683Z,99794.19
2023-03-26T00:15:30.197Z,99788.09
2023-03-26T00:17:58.700Z,99781.16
2023-03-26T00:20:32.956Z,99774.28
2023-03-26T00:23:02.575Z,99779.53
2023-03-26T00:25:31.824Z,99791.63
2023-03-26T00:28:03.993Z,99777.44
2023-03-26T00:30:32.209Z,99781.72
2023-03-26T00:33:00.868Z,99780.66
2023-03-26T00:35:29.887Z,99786.53
2023-03-26T00:37:58.366Z,99791.63
2023-03-26T00:40:32.100Z,99784.47
2023-03-26T00:43:00.601Z,99784.56
2023-03-26T00:45:28.739Z,99784.63
2023-03-26T00:47:57.173Z,99782.94
2023-03-26T00:50:25.370Z,99778.66
2023-03-26T00:52:56.021Z,99779.72
2023-03-26T00:55:24.201Z,99773.75
2023-03-26T00:57:55.622Z,99768.56
2023-03-26T01:00:31.820Z,99763.50
2023-03-26T01:03:27.608Z,99749.56
2023-03-26T01:06:04.764Z,99748.75
2023-03-26T01:08:35.334Z,99743.56
2023-03-26T01:11:13.906Z,99742.72
2023-03-26T01:13:48.659Z,99733.09
2023-03-26T01:16:22.071Z,99738.50
2023-03-26T01:18:52.896Z,99735.03
2023-03-26T01:21:23.756Z,99724.59
2023-03-26T01:23:59.897Z,99723.75
2023-03-26T01:26:43.225Z,99725.56
2023-03-26T01:29:20.884Z,99722.88
2023-03-26T01:32:03.007Z,99719.34
2023-03-26T01:34:47.075Z,99722.88
2023-03-26T01:37:23.839Z,99709.50
2023-03-26T01:39:57.502Z,99706.75
2023-03-26T01:42:35.059Z,99703.22
2023-03-26T01:45:11.305Z,99694.41
2023-03-26T01:47:44.482Z,99687.28
2023-03-26T01:50:15.769Z,99686.50
2023-03-26T01:52:46.346Z,99689.19
2023-03-26T01:55:16.226Z,99685.63
2023-03-26T01:57:56.240Z,99684.75
2023-03-26T02:00:31.134Z,99675.00
2023-03-26T02:03:21.494Z,99680.31
2023-03-26T02:05:56.622Z,99668.84
2023-03-26T02:08:35.632Z,99664.50
2023-03-26T02:11:11.735Z,99667.22
2023-03-26T02:13:41.345Z,99663.63
2023-03-26T02:16:14.137Z,99651.41
2023-03-26T02:18:42.646Z,99639.25
2023-03-26T02:21:13.607Z,99643.69
2023-03-26T02:23:47.126Z,99631.31
2023-03-26T02:26:17.550Z,99628.59
2023-03-26T02:29:01.844Z,99625.03
2023-03-26T02:31:30.382Z,99630.38
2023-03-26T02:34:01.088Z,99620.63
2023-03-26T02:36:35.924Z,99612.59
2023-03-26T02:39:05.907Z,99579.56
2023-03-26T02:41:39.203Z,99608.09
2023-03-26T02:44:13.056Z,99596.59
2023-03-26T02:46:58.995Z,99601.81
2023-03-26T02:49:50.595Z,99589.38
2023-03-26T02:52:40.047Z,99588.44
2023-03-26T02:55:10.818Z,99588.31
2023-03-26T02:57:42.526Z,99588.25
2023-03-26T03:00:22.277Z,99578.44
2023-03-26T03:02:57.979Z,99573.09
2023-03-26T03:05:32.872Z,99561.56
2023-03-26T03:08:21.884Z,99556.13
2023-03-26T03:11:24.988Z,99559.59
2023-03-26T03:13:57.650Z,99557.75
2023-03-26T03:16:28.745Z,99544.47
2023-03-26T03:19:01.867Z,99542.63
2023-03-26T03:21:37.616Z,99537.31
2023-03-26T03:24:06.578Z,99529.44
2023-03-26T03:26:38.469Z,99523.25
2023-03-26T03:29:35.091Z,99517.13
2023-03-26T03:32:24.398Z,99517.16
2023-03-26T03:34:55.763Z,99517.22
2023-03-26T03:37:24.667Z,99521.66
2023-03-26T03:39:55.692Z,99517.31
2023-03-26T03:42:27.470Z,99521.78
2023-03-26T03:44:59.935Z,99511.91
2023-03-26T03:47:46.292Z,99495.16
2023-03-26T03:50:17.518Z,99495.13
2023-03-26T03:53:06.802Z,99489.00
2023-03-26T03:55:38.397Z,99475.81
2023-03-26T03:58:09.110Z,99468.78
2023-03-26T04:00:41.821Z,99467.91
2023-03-26T04:03:33.195Z,99447.22
2023-03-26T04:06:08.057Z,99462.69
2023-03-26T04:08:36.436Z,99460.03
2023-03-26T04:11:07.286Z,99453.03
2023-03-26T04:14:04.582Z,99445.81
2023-03-26T04:16:52.955Z,99446.59
2023-03-26T04:19:21.510Z,99441.25
2023-03-26T04:21:50.535Z,99428.91
2023-03-26T04:24:22.429Z,99409.31
2023-03-26T04:27:16.055Z,99402.03
2023-03-26T04:29:49.647Z,99415.91
2023-03-26T04:32:26.643Z,99414.22
2023-03-26T04:34:55.730Z,99400.13
2023-03-26T04:37:32.513Z,99395.78
2023-03-26T04:40:15.063Z,99392.44
2023-03-26T04:43:06.728Z,99391.47
2023-03-26T04:46:02.845Z,99381.03
2023-03-26T04:48:35.428Z,99386.34
2023-03-26T04:51:03.681Z,99341.00
2023-03-26T04:53:32.019Z,99377.56
2023-03-26T04:56:35.620Z,99367.06
2023-03-26T04:59:26.511Z,99360.84
2023-03-26T05:01:58.037Z,99363.44
2023-03-26T05:04:34.140Z,99357.25
2023-03-26T05:07:03.403Z,99359.59
2023-03-26T05:09:38.216Z,99344.34
2023-03-26T05:12:16.578Z,99333.59
2023-03-26T05:14:59.336Z,99326.91
2023-03-26T05:17:55.691Z,99334.56
2023-03-26T05:20:34.398Z,99331.84
2023-03-26T05:23:04.498Z,99325.56
2023-03-26T05:25:35.858Z,99328.22
2023-03-26T05:28:07.417Z,99315.91
2023-03-26T05:30:54.461Z,99304.41
2023-03-26T05:33:25.180Z,99305.31
2023-03-26T05:36:09.183Z,99305.09
2023-03-26T05:38:38.000Z,99299.97
2023-03-26T05:41:10.279Z,99296.53
2023-03-26T05:43:43.760Z,99300.28
2023-03-26T05:46:20.294Z,99299.03
2023-03-26T05:48:48.752Z,99286.94
2023-03-26T05:51:18.492Z,99278.41
2023-03-26T05:53:58.883Z,99278.78
2023-03-26T05:56:33.154Z,99274.94
2023-03-26T05:59:19.841Z,99259.75
2023-03-26T06:02:06.537Z,99276.44
2023-03-26T06:05:12.514Z,99265.00
2023-03-26T06:07:47.992Z,99258.97
2023-03-26T06:10:19.278Z,99251.91
2023-03-26T06:12:47.811Z,99256.44
2023-03-26T06:15:16.270Z,99254.47
2023-03-26T06:18:06.962Z,99242.09
2023-03-26T06:23:23.343Z,99228.38
2023-03-26T06:26:13.974Z,99221.34
2023-03-26T06:28:50.696Z,99224.75
2023-03-26T06:31:37.688Z,99214.13
2023-03-26T06:34:25.094Z,99175.16
2023-03-26T06:36:53.586Z,99214.91
2023-03-26T06:39:24.623Z,99209.69
2023-03-26T06:42:05.546Z,99203.34
2023-03-26T06:45:03.400Z,99197.03
2023-03-26T06:47:50.172Z,99196.06
2023-03-26T06:50:45.654Z,99195.88
2023-03-26T06:53:32.733Z,99197.38
2023-03-26T06:56:37.101Z,99194.34
2023-03-26T06:59:21.687Z,99185.50
2023-03-26T07:02:08.607Z,99186.44
2023-03-26T07:04:55.480Z,99185.50
2023-03-26T07:07:46.216Z,99177.41
2023-03-26T07:10:33.458Z,99172.13
2023-03-26T07:13:23.180Z,99156.25
2023-03-26T07:16:00.140Z,99158.00
2023-03-26T07:18:31.636Z,99151.78
2023-03-26T07:21:01.435Z,99153.44
2023-03-26T07:23:35.805Z,99155.34
2023-03-26T07:26:29.219Z,99139.81
2023-03-26T07:29:17.591Z,99151.13
2023-03-26T07:32:12.616Z,99140.81
2023-03-26T07:35:00.216Z,99144.09
2023-03-26T07:37:50.150Z,99135.91
2023-03-26T07:40:29.282Z,99127.44
2023-03-26T07:43:32.819Z,99130.72
2023-03-26T07:46:14.153Z,99126.13
2023-03-26T07:48:58.600Z,99117.88
2023-03-26T07:51:38.876Z,99117.88
2023-03-26T07:54:07.803Z,99122.94
2023-03-26T07:57:06.683Z,99128.84
2023-03-26T07:59:52.407Z,99121.50
2023-03-26T08:03:05.762Z,99119.88
2023-03-26T08:06:01.139Z,99119.59
2023-03-26T08:08:54.963Z,99125.06
2023-03-26T08:11:48.980Z,99122.25
2023-03-26T08:14:40.928Z,99121.66
2023-03-26T08:17:12.877Z,99127.34
2023-03-26T08:20:05.792Z,99123.03
2023-03-26T08:22:37.596Z,99107.19
2023-03-26T08:25:21.942Z,99111.53
2023-03-26T08:28:03.073Z,99102.88
2023-03-26T08:30:32.605Z,99105.44
2023-03-26T08:33:06.413Z,99097.50
2023-03-26T08:35:37.913Z,99089.47
2023-03-26T08:38:10.024Z,99079.72
2023-03-26T08:41:05.468Z,99077.69
2023-03-26T08:44:13.745Z,99070.44
2023-03-26T08:47:24.362Z,99047.13
2023-03-26T08:50:18.448Z,99045.41
2023-03-26T08:53:24.043Z,99041.53
2023-03-26T08:56:02.422Z,99047.72
2023-03-26T08:59:01.890Z,99046.59
2023-03-26T09:01:58.153Z,99050.72
2023-03-26T09:05:06.477Z,99050.88
2023-03-26T09:07:53.705Z,99043.78
2023-03-26T09:10:56.352Z,99056.31
2023-03-26T09:14:04.492Z,99050.13
2023-03-26T09:17:08.799Z,99037.56
2023-03-26T09:20:04.007Z,99013.81
2023-03-26T09:23:07.084Z,99030.53
2023-03-26T09:25:46.392Z,99032.69
2023-03-26T09:28:50.282Z,99016.41
2023-03-26T09:31:34.562Z,99020.00
2023-03-26T09:34:20.214Z,99024.31
2023-03-26T09:36:57.635Z,99037.63
2023-03-26T09:39:38.812Z,99029.41
2023-03-26T09:42:11.812Z,99024.97
2023-03-26T09:45:04.546Z,99025.47
2023-03-26T09:48:05.535Z,99004.19
2023-03-26T09:50:50.133Z,99061.69
2023-03-26T09:53:43.608Z,99060.44
2023-03-26T09:56:26.975Z,99035.94
2023-03-26T09:59:20.926Z,99024.09
2023-03-26T10:01:54.634Z,99023.56
2023-03-26T10:04:46.073Z,99012.78
2023-03-26T10:07:31.802Z,99010.94
2023-03-26T10:10:05.354Z,99001.25
2023-03-26T10:12:38.496Z,99001.94
2023-03-26T10:15:22.831Z,99002.50
2023-03-26T10:18:26.724Z,98990.59
2023-03-26T10:21:06.220Z,98986.53
2023-03-26T10:23:51.670Z,98989.72
2023-03-26T10:26:39.530Z,98977.75
2023-03-26T10:29:27.359Z,98971.72
2023-03-26T10:32:11.133Z,98967.78
2023-03-26T10:34:56.684Z,98966.44
2023-03-26T10:37:37.573Z,98957.25
2023-03-26T10:40:18.023Z,98966.59
2023-03-26T10:43:22.214Z,98961.09
2023-03-26T10:46:07.481Z,98964.28
2023-03-26T10:48:52.406Z,98963.16
2023-03-26T10:51:29.525Z,98967.44
2023-03-26T10:54:03.044Z,98961.97
2023-03-26T10:56:36.640Z,98964.94
2023-03-26T10:59:09.526Z,98961.34
2023-03-26T11:01:44.810Z,98954.09
2023-03-26T11:04:25.672Z,98954.59
2023-03-26T11:07:05.430Z,98948.66
2023-03-26T11:09:44.571Z,98945.19
2023-03-26T11:12:26.898Z,98944.69
2023-03-26T11:15:07.090Z,98943.31
2023-03-26T11:17:46.919Z,98928.94
2023-03-26T11:20:20.177Z,98929.72
2023-03-26T11:24:53.566Z,98931.16
2023-03-26T11:27:32.388Z,98932.47
2023-03-26T11:30:12.359Z,98930.13
2023-03-26T11:32:43.930Z,98940.03
2023-03-26T11:35:41.142Z,98953.50
2023-03-26T11:38:19.278Z,98952.22
2023-03-26T11:40:51.609Z,98961.16
2023-03-26T11:43:34.332Z,98968.56
2023-03-26T11:46:08.785Z,98959.09
2023-03-26T11:48:44.153Z,98952.75
2023-03-26T11:51:17.761Z,98953.38
2023-03-26T11:53:48.254Z,98959.06
2023-03-26T11:56:28.021Z,98961.25
2023-03-26T11:59:01.350Z,98961.28
2023-03-26T12:01:41.704Z,98950.00
2023-03-26T12:04:13.541Z,98941.22
2023-03-26T12:06:52.677Z,98950.25
2023-03-26T12:09:21.584Z,98927.88
2023-03-26T12:11:56.080Z,98944.78
2023-03-26T12:14:27.306Z,98929.56
2023-03-26T12:17:03.475Z,98929.34
2023-03-26T12:19:42.712Z,98928.75
2023-03-26T12:22:30.022Z,98928.72
2023-03-26T12:25:02.814Z,98922.09
2023-03-26T12:27:33.388Z,98936.44
2023-03-26T12:30:12.244Z,98936.31
2023-03-26T12:32:46.820Z,98932.00
2023-03-26T12:35:19.530Z,98939.06
2023-03-26T12:37:48.801Z,98928.25
2023-03-26T12:40:32.544Z,98928.41
2023-03-26T12:44:48.636Z,98946.56
2023-03-26T12:46:03.584Z,98948.22
2023-03-26T12:48:44.989Z,98955.13
2023-03-26T12:51:27.571Z,98946.78
2023-03-26T12:54:42.591Z,98944.06
2023-03-26T12:57:21.431Z,98946.13
2023-03-26T13:00:20.222Z,98935.25
2023-03-26T13:03:12.107Z,98933.25
2023-03-26T13:05:54.567Z,98930.78
2023-03-26T13:08:43.125Z,98936.38
2023-03-26T13:11:20.854Z,98940.50
2023-03-26T13:14:03.111Z,98928.56
2023-03-26T13:16:38.961Z,98919.16
2023-03-26T13:19:12.199Z,98910.16
2023-03-26T13:21:57.715Z,98910.28
2023-03-26T13:24:39.130Z,98907.25
2023-03-26T13:27:20.992Z,98906.28
2023-03-26T13:29:58.773Z,98905.44
2023-03-26T13:32:39.649Z,98908.31
2023-03-26T13:35:20.569Z,98902.53
2023-03-26T13:37:56.887Z,98904.88
2023-03-26T13:40:38.330Z,98911.44
2023-03-26T13:43:23.063Z,98904.13
2023-03-26T13:45:58.052Z,98895.47
2023-03-26T13:48:31.207Z,98893.31
2023-03-26T13:51:03.130Z,98903.72
2023-03-26T13:53:43.081Z,98895.34
2023-03-26T13:56:14.807Z,98900.50
2023-03-26T13:58:46.205Z,98891.03
2023-03-26T14:01:17.989Z,98887.94
2023-03-26T14:03:57.145Z,98891.16
2023-03-26T14:06:43.524Z,98889.44
2023-03-26T14:09:19.046Z,98873.69
2023-03-26T14:12:01.591Z,98867.75
2023-03-26T14:14:38.492Z,98877.81
2023-03-26T14:17:18.393Z,98863.88
2023-03-26T14:20:40.124Z,98868.94
2023-03-26T14:23:23.997Z,98846.91
2023-03-26T14:26:06.827Z,98852.25
2023-03-26T14:28:59.235Z,98846.69
2023-03-26T14:31:34.985Z,98859.88
2023-03-26T14:34:25.543Z,98848.31
2023-03-26T14:37:27.878Z,98853.41
2023-03-26T14:40:18.153Z,98842.78
2023-03-26T14:42:56.506Z,98845.88
2023-03-26T14:45:55.716Z,98847.41
2023-03-26T14:48:49.378Z,98851.44
2023-03-26T14:51:34.104Z,98855.72
2023-03-26T14:54:12.511Z,98849.06
2023-03-26T14:56:58.220Z,98852.41
2023-03-26T15:00:05.866Z,98862.03
2023-03-26T15:03:12.748Z,98862.00
2023-03-26T15:06:18.229Z,98871.34
2023-03-26T15:09:27.267Z,98884.16
2023-03-26T15:12:12.478Z,98881.41
2023-03-26T15:15:25.211Z,98898.31
2023-03-26T15:18:30.561Z,98896.59
2023-03-26T15:21:30.298Z,98895.56
2023-03-26T15:24:44.920Z,98894.50
2023-03-26T15:27:40.563Z,98893.56
2023-03-26T15:30:50.269Z,98897.56
2023-03-26T15:33:46.074Z,98898.78
2023-03-26T15:36:58.881Z,98901.03
2023-03-26T15:39:44.138Z,98913.78
2023-03-26T15:42:45.796Z,98902.09
2023-03-26T15:45:33.088Z,98914.88
2023-03-26T15:48:34.510Z,98902.22
2023-03-26T15:51:24.090Z,98906.91
2023-03-26T15:54:01.062Z,98903.19
2023-03-26T15:56:49.518Z,98901.72
2023-03-26T15:59:37.118Z,98912.91
2023-03-26T16:02:18.263Z,98924.63
2023-03-26T16:04:52.822Z,98939.16
2023-03-26T16:07:42.892Z,98955.69
2023-03-26T16:10:28.273Z,98960.19
2023-03-26T16:13:23.806Z,98957.53
2023-03-26T16:15:57.921Z,98962.44
2023-03-26T16:18:34.412Z,98977.72
2023-03-26T16:21:37.750Z,98975.31
2023-03-26T16:25:29.654Z,98978.75
2023-03-26T16:28:30.428Z,98987.78
2023-03-26T16:31:36.996Z,98983.56
2023-03-26T16:34:26.417Z,98985.69
2023-03-26T16:36:55.095Z,98976.59
2023-03-26T16:39:25.265Z,98969.69
2023-03-26T16:42:26.530Z,98975.13
2023-03-26T16:45:06.337Z,98973.53
2023-03-26T16:47:44.349Z,98977.31
2023-03-26T16:50:26.215Z,98977.03
2023-03-26T16:53:02.066Z,98982.72
2023-03-26T16:55:41.948Z,98978.66
2023-03-26T16:58:24.047Z,98988.53
2023-03-26T17:01:04.867Z,98992.63
2023-03-26T17:03:39.897Z,98998.88
2023-03-26T17:06:25.306Z,98994.06
2023-03-26T17:09:00.423Z,98997.16
2023-03-26T17:11:39.939Z,98994.38
2023-03-26T17:14:26.741Z,98977.31
2023-03-26T17:17:13.349Z,98984.84
2023-03-26T17:19:52.758Z,98983.41
2023-03-26T17:22:36.307Z,98974.13
2023-03-26T17:25:32.170Z,98974.63
2023-03-26T17:28:23.579Z,98981.72
2023-03-26T17:31:03.349Z,98988.25
2023-03-26T17:33:36.791Z,98996.41
2023-03-26T17:36:41.085Z,98987.88
2023-03-26T17:39:23.597Z,98995.91
2023-03-26T17:41:57.193Z,98990.72
2023-03-26T17:44:37.962Z,98997.69
2023-03-26T17:47:20.939Z,98995.25
2023-03-26T17:49:59.340Z,98995.38
2023-03-26T17:52:35.175Z,98998.38
2023-03-26T17:55:04.343Z,99000.16
2023-03-26T17:57:42.085Z,99009.41
2023-03-26T18:00:18.319Z,99005.09
2023-03-26T18:02:54.331Z,99006.94
2023-03-26T18:05:26.509Z,99012.53
2023-03-26T18:08:37.261Z,99020.41
2023-03-26T18:11:21.199Z,99028.63
2023-03-26T18:14:24.844Z,99030.75
2023-03-26T18:16:55.219Z,99034.59
2023-03-26T18:19:26.038Z,99035.72
2023-03-26T18:21:57.754Z,99030.78
2023-03-26T18:24:29.829Z,99032.69
2023-03-26T18:27:02.743Z,99031.72
2023-03-26T18:29:33.848Z,99027.13
2023-03-26T18:32:04.168Z,99029.78
2023-03-26T18:34:36.720Z,99023.69
2023-03-26T18:37:16.447Z,99027.13
2023-03-26T18:39:58.296Z,99032.84
2023-03-26T18:42:29.338Z,99028.38
2023-03-26T18:45:00.494Z,99030.19
2023-03-26T18:47:32.504Z,99023.47
2023-03-26T18:50:07.488Z,99032.44
2023-03-26T18:52:36.080Z,99024.34
2023-03-26T18:55:08.092Z,99025.75
2023-03-26T18:57:36.515Z,99021.97
2023-03-26T19:00:20.673Z,99015.69
2023-03-26T19:02:51.631Z,99014.50
2023-03-26T19:05:21.793Z,99017.63
2023-03-26T19:07:52.382Z,99005.16
2023-03-26T19:10:22.274Z,99004.16
2023-03-26T19:12:58.425Z,99013.06
2023-03-26T19:15:30.162Z,99020.41
2023-03-26T19:18:07.152Z,99021.59
2023-03-26T19:20:42.313Z,99024.50
2023-03-26T19:23:15.832Z,99028.41
2023-03-26T19:25:48.248Z,99023.56
2023-03-26T19:28:21.911Z,99033.66
2023-03-26T19:30:55.833Z,99031.13
2023-03-26T19:33:24.506Z,99032.31
2023-03-26T19:36:03.543Z,99022.88
2023-03-26T19:38:40.184Z,99033.78
2023-03-26T19:41:19.806Z,99027.13
2023-03-26T19:43:50.062Z,99029.25
2023-03-26T19:46:19.095Z,99031.41
2023-03-26T19:48:49.254Z,99030.81
2023-03-26T19:51:23.590Z,99031.97
2023-03-26T19:53:55.440Z,99034.69
2023-03-26T19:56:26.816Z,99025.22
2023-03-26T19:58:55.532Z,99029.53
2023-03-26T20:01:26.880Z,99022.63
2023-03-26T20:03:57.924Z,99021.69
2023-03-26T20:06:41.620Z,99024.19
2023-03-26T20:09:12.532Z,99031.38
2023-03-26T20:11:43.576Z,99030.53
2023-03-26T20:14:16.822Z,99031.78
2023-03-26T20:16:46.161Z,99034.34
2023-03-26T20:19:15.725Z,99037.19
2023-03-26T20:21:46.236Z,99028.66
2023-03-26T20:24:18.407Z,99005.44
2023-03-26T20:26:49.382Z,99033.09
2023-03-26T20:29:18.057Z,99039.31
2023-03-26T20:31:48.527Z,99043.72
2023-03-26T20:34:19.837Z,99048.19
2023-03-26T20:36:55.618Z,99055.28
2023-03-26T20:39:24.657Z,99046.38
2023-03-26T20:41:56.603Z,99058.81
2023-03-26T20:44:26.817Z,99064.09
2023-03-26T20:46:56.700Z,99066.75
2023-03-26T20:49:29.431Z,99060.69
2023-03-26T20:52:00.680Z,99063.31
2023-03-26T20:54:30.496Z,99070.19
2023-03-26T20:56:58.732Z,99071.94
2023-03-26T20:59:29.157Z,99079.16
2023-03-26T21:01:59.484Z,99072.25
2023-03-26T21:04:28.888Z,99084.50
2023-03-26T21:07:07.196Z,99086.38
2023-03-26T21:09:50.052Z,99095.97
2023-03-26T21:12:24.810Z,99090.81
2023-03-26T21:14:55.855Z,99099.53
2023-03-26T21:17:25.368Z,99101.28
2023-03-26T21:20:06.440Z,99107.28
2023-03-26T21:22:41.059Z,99110.91
2023-03-26T21:26:33.053Z,99112.78
2023-03-26T21:29:02.480Z,99116.19
2023-03-26T21:31:36.623Z,99119.72
2023-03-26T21:34:08.422Z,99126.69
2023-03-26T21:36:37.138Z,99137.31
2023-03-26T21:39:06.606Z,99133.59
2023-03-26T21:41:46.169Z,99131.16
2023-03-26T21:44:15.349Z,99141.66
2023-03-26T21:46:44.634Z,99143.47
2023-03-26T21:49:15.009Z,99158.59
2023-03-26T21:51:44.980Z,99159.50
2023-03-26T21:54:25.094Z,99156.91
2023-03-26T21:57:06.670Z,99164.16
2023-03-26T21:59:44.835Z,99170.34
2023-03-26T22:02:22.792Z,99176.63
2023-03-26T22:04:55.154Z,99174.28
2023-03-26T22:07:29.121Z,99189.16
2023-03-26T22:09:58.084Z,99204.19
2023-03-26T22:12:27.482Z,99164.31
2023-03-26T22:14:55.719Z,99209.66
2023-03-26T22:17:24.251Z,99215.00
2023-03-26T22:19:52.373Z,99216.81
2023-03-26T22:22:22.266Z,99232.00
2023-03-26T22:24:50.301Z,99237.41
2023-03-26T22:27:21.033Z,99241.09
2023-03-26T22:29:50.444Z,99253.56
2023-03-26T22:32:18.818Z,99248.41
2023-03-26T22:34:48.697Z,99264.22
2023-03-26T22:37:17.535Z,99265.22
2023-03-26T22:39:47.831Z,99273.38
2023-03-26T22:42:16.022Z,99283.91
2023-03-26T22:44:46.582Z,99284.94
2023-03-26T22:47:17.030Z,99294.66
2023-03-26T22:49:45.880Z,99292.91
2023-03-26T22:52:14.425Z,99305.28
2023-03-26T22:54:42.724Z,99316.69
2023-03-26T22:57:14.036Z,99322.06
2023-03-26T22:59:42.288Z,99339.78
2023-03-26T23:02:12.519Z,99335.38
2023-03-26T23:04:42.632Z,99342.38
2023-03-26T23:07:11.864Z,99354.00
2023-03-26T23:09:39.930Z,99354.81
2023-03-26T23:12:08.189Z,99366.34
2023-03-26T23:14:36.706Z,99372.44
2023-03-26T23:17:05.218Z,99374.28
2023-03-26T23:19:37.266Z,99377.00
2023-03-26T23:22:06.998Z,99382.50
2023-03-26T23:24:37.966Z,99392.16
2023-03-26T23:27:07.819Z,99399.34
2023-03-26T23:29:36.713Z,99407.31
2023-03-26T23:32:24.155Z,99415.28
2023-03-26T23:34:53.290Z,99438.38
2023-03-26T23:37:23.942Z,99431.63
2023-03-26T23:39:52.882Z,99433.94
2023-03-26T23:42:29.541Z,99447.31
2023-03-26T23:45:01.263Z,99462.47
2023-03-26T23:47:34.870Z,99478.53
2023-03-26T23:50:05.163Z,99486.53
2023-03-26T23:52:34.719Z,99480.72
2023-03-26T23:55:04.646Z,99498.22
2023-03-26T23:57:32.796Z,99511.56
